Terminal Aerodrome Forecast
Issued by NWS Tiyan, Guam

Home | Current Version | Previous Version | Text Only | Print | Product List | Glossary On
Versions: 1 2 3 4 5 6 7 8 9 10 11 12 13
000
FTPQ31 PGUM 230530
TAFGUM
TAF
PGUM 230530Z 2306/2412 08014KT P6SM VCSH SCT018 SCT050
     FM230700 07010KT P6SM VCSH FEW020 SCT050
     FM240000 07011G18KT P6SM VCSH SCT025 SCT050 SCT120=

USA.gov is the U.S. government's official web portal to all federal, state and local government web resources and services.